VRMMVRMG

Guest
Details From VRMM - MALE INTL
To VRMG - GAN ISLAND
Flight Number -
Tags generated
Created
Modified
Stats Distance 295 nm / 545 km
Max Altitude 16,900 ft / 5,151 m
Waypoints 4
Social Downloads 1
Likes 0
Share VATSIM

Download

Looking for another format? Having issues loading an existing format? Contact us
Advertisement - Login to hide

Notes

Basic altitude profile: - Ascent Rate: 2500ft/min - Ascent Speed: 250kts - Cruise Altitude: 35000ft - Cruise Speed: 300kts - Descent Rate: 1500ft/min - Descent Speed: 250kts Options: - Use NATs: yes - Use PACOTS: yes - Use low airways: yes - Use high airways: yes

Route

VRMM ATISA R329 GAN VRMG

ID Type Via Altitude Latitude Longitude Leg Dist Tot Dist Heading (true) Name
O VRMM APT - 0 ft / 0 m 4.19183˚ 73.52913˚ - 0 nm - MALE INTL
ATISA FIX - 16,900 ft / 5,151 m 3.35611˚ 73.52722˚ 50 nm 50 nm 180° / 180° -
GAN VOR R329 (AWY-LO) 2,500 ft / 762 m -0.69427˚ 73.15549˚ 244 nm 294 nm 185° / 185° GAN ISLAND VOR-DME
O VRMG APT - 0 ft / 0 m -0.69334˚ 73.15565˚ 0 nm 294 nm 9° / 9° GAN ISLAND

Altitude Profile

Advertisement - Login to hide

Weather


0- 5 10 15 20 25 30 35+ Temperature / ° C

Clouds and Precipitation
Forecast for 2017-12-15 00:00 UTC. Updated 2 hours ago

Ground ~20,000 ft ~40,000 ft Winds

VRMM

Details ICAO VRMM (MLE)
Name MALE INTL
Region Maldives
Timezone Indian/Maldives (UTC+5.0)
Stats Elevation 6 ft / 2 m (AMSL)
Location 4.191832° 73.529128°
Runways 1
Magnetic Variation 2.834° W

METAR

VRMM 142000Z 03005KT 9999 FEW018TCU 28/23 Q1011 NOSIG

Decode

TAF

TAF VRMM 141700Z 1418/1524 02008KT 9999 FEW019

Decode

Departure Runways

ID Width Length Bearing (true) Bearing (mag) Surface Threshold Offset Overrun Length
18 148 ft / 45 m 10,556 ft / 3,218 m 179.06° 181.89° Asphalt 328 ft / 100 m 201 ft / 61 m
36 148 ft / 45 m 10,556 ft / 3,218 m 359.06° 1.89° Asphalt 952 ft / 290 m 238 ft / 73 m

VRMG

Details ICAO VRMG (GAN)
Name GAN ISLAND
Region Maldives
Timezone Unknown (UTC+0.0)
Stats Elevation 6 ft / 2 m (AMSL)
Location -0.693340° 73.155646°
Runways 1
Magnetic Variation 4.133° W

METAR

Not found

TAF

TAF VRMG 141700Z 1418/1524 36006KT 9999 FEW019 TEMPO 1418/1423 5000 -TSRA FEW018CB

Decode

Destination Runways

ID Width Length Bearing (true) Bearing (mag) Surface Threshold Offset Overrun Length
10 148 ft / 45 m 8,719 ft / 2,658 m 98.70° 102.83° Concrete 298 ft / 91 m 0 ft / 0 m
28 148 ft / 45 m 8,719 ft / 2,658 m 278.70° 282.83° Concrete 298 ft / 91 m 0 ft / 0 m

Popular Alternatives